sensor_id;sensor_type;location;lat;lon;timestamp;P1;durP1;ratioP1;P2;durP2;ratioP2
35578;SDS011;21687;48.900;9.188;2024-01-16T00:01:17;7.20;;;4.63;;
35578;SDS011;21687;48.900;9.188;2024-01-16T00:03:45;10.63;;;4.40;;
35578;SDS011;21687;48.900;9.188;2024-01-16T00:06:11;6.23;;;4.53;;
35578;SDS011;21687;48.900;9.188;2024-01-16T00:08:38;5.77;;;4.03;;
35578;SDS011;21687;48.900;9.188;2024-01-16T00:11:05;7.80;;;4.33;;
35578;SDS011;21687;48.900;9.188;2024-01-16T00:13:32;7.13;;;4.60;;
35578;SDS011;21687;48.900;9.188;2024-01-16T00:15:58;8.37;;;4.10;;
35578;SDS011;21687;48.900;9.188;2024-01-16T00:18:26;5.77;;;3.87;;
35578;SDS011;21687;48.900;9.188;2024-01-16T00:20:53;7.87;;;4.37;;
35578;SDS011;21687;48.900;9.188;2024-01-16T00:23:19;9.03;;;4.30;;
35578;SDS011;21687;48.900;9.188;2024-01-16T00:25:45;5.93;;;3.83;;
35578;SDS011;21687;48.900;9.188;2024-01-16T00:28:11;6.43;;;4.23;;
35578;SDS011;21687;48.900;9.188;2024-01-16T00:30:38;6.10;;;4.43;;
35578;SDS011;21687;48.900;9.188;2024-01-16T00:33:04;10.50;;;4.63;;
35578;SDS011;21687;48.900;9.188;2024-01-16T00:35:30;7.97;;;4.20;;
35578;SDS011;21687;48.900;9.188;2024-01-16T00:37:57;8.03;;;4.80;;
35578;SDS011;21687;48.900;9.188;2024-01-16T00:40:23;7.43;;;4.17;;
35578;SDS011;21687;48.900;9.188;2024-01-16T00:42:50;6.67;;;4.37;;
35578;SDS011;21687;48.900;9.188;2024-01-16T00:45:16;7.23;;;4.67;;
35578;SDS011;21687;48.900;9.188;2024-01-16T00:47:43;6.63;;;4.33;;
35578;SDS011;21687;48.900;9.188;2024-01-16T00:50:09;8.47;;;4.40;;
35578;SDS011;21687;48.900;9.188;2024-01-16T00:52:35;6.70;;;5.00;;
35578;SDS011;21687;48.900;9.188;2024-01-16T00:55:02;6.43;;;4.60;;
35578;SDS011;21687;48.900;9.188;2024-01-16T00:57:29;6.13;;;4.70;;
35578;SDS011;21687;48.900;9.188;2024-01-16T00:59:56;6.57;;;4.87;;
35578;SDS011;21687;48.900;9.188;2024-01-16T01:02:22;7.30;;;4.77;;
35578;SDS011;21687;48.900;9.188;2024-01-16T01:04:50;9.73;;;5.00;;
35578;SDS011;21687;48.900;9.188;2024-01-16T01:07:16;7.80;;;5.20;;
35578;SDS011;21687;48.900;9.188;2024-01-16T01:09:42;8.23;;;4.90;;
35578;SDS011;21687;48.900;9.188;2024-01-16T01:12:09;6.83;;;4.30;;
35578;SDS011;21687;48.900;9.188;2024-01-16T01:14:35;8.10;;;5.10;;
35578;SDS011;21687;48.900;9.188;2024-01-16T01:17:01;7.43;;;5.10;;
35578;SDS011;21687;48.900;9.188;2024-01-16T01:19:28;11.90;;;5.50;;
35578;SDS011;21687;48.900;9.188;2024-01-16T01:21:54;7.63;;;5.10;;
35578;SDS011;21687;48.900;9.188;2024-01-16T01:24:21;7.73;;;4.67;;
35578;SDS011;21687;48.900;9.188;2024-01-16T01:26:47;9.07;;;5.03;;
35578;SDS011;21687;48.900;9.188;2024-01-16T01:29:13;8.73;;;4.80;;
35578;SDS011;21687;48.900;9.188;2024-01-16T01:31:40;8.07;;;4.60;;
35578;SDS011;21687;48.900;9.188;2024-01-16T01:34:10;7.00;;;4.70;;
35578;SDS011;21687;48.900;9.188;2024-01-16T01:36:36;5.07;;;4.27;;
35578;SDS011;21687;48.900;9.188;2024-01-16T01:39:02;8.50;;;4.63;;
35578;SDS011;21687;48.900;9.188;2024-01-16T01:41:29;8.07;;;4.90;;
35578;SDS011;21687;48.900;9.188;2024-01-16T01:43:55;7.03;;;4.40;;
35578;SDS011;21687;48.900;9.188;2024-01-16T01:46:21;9.73;;;4.83;;
35578;SDS011;21687;48.900;9.188;2024-01-16T01:48:48;6.07;;;4.47;;
35578;SDS011;21687;48.900;9.188;2024-01-16T01:51:18;10.47;;;5.37;;
35578;SDS011;21687;48.900;9.188;2024-01-16T01:53:44;7.83;;;5.23;;
35578;SDS011;21687;48.900;9.188;2024-01-16T01:56:16;9.47;;;5.20;;
35578;SDS011;21687;48.900;9.188;2024-01-16T01:58:44;7.67;;;5.07;;
35578;SDS011;21687;48.900;9.188;2024-01-16T02:01:13;9.13;;;4.87;;
35578;SDS011;21687;48.900;9.188;2024-01-16T02:03:41;10.60;;;5.80;;
35578;SDS011;21687;48.900;9.188;2024-01-16T02:06:09;7.87;;;5.20;;
35578;SDS011;21687;48.900;9.188;2024-01-16T02:08:37;8.73;;;4.87;;
35578;SDS011;21687;48.900;9.188;2024-01-16T02:11:05;7.63;;;5.00;;
35578;SDS011;21687;48.900;9.188;2024-01-16T02:13:32;7.80;;;5.03;;
35578;SDS011;21687;48.900;9.188;2024-01-16T02:15:58;6.10;;;5.10;;
35578;SDS011;21687;48.900;9.188;2024-01-16T02:18:24;8.97;;;5.03;;
35578;SDS011;21687;48.900;9.188;2024-01-16T02:20:51;6.43;;;5.00;;
35578;SDS011;21687;48.900;9.188;2024-01-16T02:23:24;9.63;;;5.50;;
35578;SDS011;21687;48.900;9.188;2024-01-16T02:25:52;8.50;;;5.20;;
35578;SDS011;21687;48.900;9.188;2024-01-16T02:28:19;9.30;;;4.87;;
35578;SDS011;21687;48.900;9.188;2024-01-16T02:30:45;11.63;;;5.30;;
35578;SDS011;21687;48.900;9.188;2024-01-16T02:33:12;9.00;;;5.50;;
35578;SDS011;21687;48.900;9.188;2024-01-16T02:35:38;8.80;;;4.83;;
35578;SDS011;21687;48.900;9.188;2024-01-16T02:38:05;9.93;;;5.10;;
35578;SDS011;21687;48.900;9.188;2024-01-16T02:40:31;7.03;;;5.00;;
35578;SDS011;21687;48.900;9.188;2024-01-16T02:42:57;6.50;;;4.97;;
35578;SDS011;21687;48.900;9.188;2024-01-16T02:45:24;7.63;;;5.30;;
35578;SDS011;21687;48.900;9.188;2024-01-16T02:47:51;8.63;;;5.50;;
35578;SDS011;21687;48.900;9.188;2024-01-16T02:50:17;7.83;;;4.73;;
35578;SDS011;21687;48.900;9.188;2024-01-16T02:52:45;9.50;;;4.63;;
35578;SDS011;21687;48.900;9.188;2024-01-16T02:55:11;5.97;;;4.93;;
35578;SDS011;21687;48.900;9.188;2024-01-16T02:57:38;9.63;;;5.13;;
35578;SDS011;21687;48.900;9.188;2024-01-16T03:00:05;9.40;;;5.07;;
35578;SDS011;21687;48.900;9.188;2024-01-16T03:02:33;6.97;;;5.30;;
35578;SDS011;21687;48.900;9.188;2024-01-16T03:04:59;7.27;;;5.03;;
35578;SDS011;21687;48.900;9.188;2024-01-16T03:07:28;7.97;;;4.63;;
35578;SDS011;21687;48.900;9.188;2024-01-16T03:09:54;8.43;;;5.07;;
35578;SDS011;21687;48.900;9.188;2024-01-16T03:12:20;5.93;;;5.03;;
35578;SDS011;21687;48.900;9.188;2024-01-16T03:14:47;8.33;;;5.30;;
35578;SDS011;21687;48.900;9.188;2024-01-16T03:17:13;10.53;;;5.23;;
35578;SDS011;21687;48.900;9.188;2024-01-16T03:19:40;6.23;;;4.73;;
35578;SDS011;21687;48.900;9.188;2024-01-16T03:22:06;10.40;;;5.20;;
35578;SDS011;21687;48.900;9.188;2024-01-16T03:24:32;9.13;;;5.20;;
35578;SDS011;21687;48.900;9.188;2024-01-16T03:26:59;9.47;;;5.53;;
35578;SDS011;21687;48.900;9.188;2024-01-16T03:29:25;9.77;;;5.50;;
35578;SDS011;21687;48.900;9.188;2024-01-16T03:31:51;10.73;;;5.07;;
35578;SDS011;21687;48.900;9.188;2024-01-16T03:34:18;8.17;;;5.27;;
35578;SDS011;21687;48.900;9.188;2024-01-16T03:36:44;5.97;;;5.03;;
35578;SDS011;21687;48.900;9.188;2024-01-16T03:39:13;6.73;;;4.40;;
35578;SDS011;21687;48.900;9.188;2024-01-16T03:41:39;10.87;;;6.53;;
35578;SDS011;21687;48.900;9.188;2024-01-16T03:44:05;8.50;;;5.53;;
35578;SDS011;21687;48.900;9.188;2024-01-16T03:46:32;7.63;;;5.07;;
35578;SDS011;21687;48.900;9.188;2024-01-16T03:48:58;9.87;;;5.13;;
35578;SDS011;21687;48.900;9.188;2024-01-16T03:51:25;7.83;;;5.40;;
35578;SDS011;21687;48.900;9.188;2024-01-16T03:53:51;8.87;;;5.03;;
35578;SDS011;21687;48.900;9.188;2024-01-16T03:56:18;8.47;;;5.70;;
35578;SDS011;21687;48.900;9.188;2024-01-16T03:58:44;7.37;;;5.20;;
35578;SDS011;21687;48.900;9.188;2024-01-16T04:01:10;10.43;;;5.63;;
35578;SDS011;21687;48.900;9.188;2024-01-16T04:03:38;12.60;;;6.00;;
35578;SDS011;21687;48.900;9.188;2024-01-16T04:06:13;11.27;;;6.00;;
35578;SDS011;21687;48.900;9.188;2024-01-16T04:08:44;13.67;;;5.10;;
35578;SDS011;21687;48.900;9.188;2024-01-16T04:11:13;8.37;;;5.77;;
35578;SDS011;21687;48.900;9.188;2024-01-16T04:13:40;8.80;;;5.63;;
35578;SDS011;21687;48.900;9.188;2024-01-16T04:16:07;7.80;;;5.57;;
35578;SDS011;21687;48.900;9.188;2024-01-16T04:18:36;6.37;;;5.37;;
35578;SDS011;21687;48.900;9.188;2024-01-16T04:21:04;9.57;;;5.57;;
35578;SDS011;21687;48.900;9.188;2024-01-16T04:23:30;8.90;;;5.70;;
35578;SDS011;21687;48.900;9.188;2024-01-16T04:25:57;8.33;;;5.60;;
35578;SDS011;21687;48.900;9.188;2024-01-16T04:28:23;9.50;;;5.57;;
35578;SDS011;21687;48.900;9.188;2024-01-16T04:30:50;10.23;;;5.90;;
35578;SDS011;21687;48.900;9.188;2024-01-16T04:33:17;10.23;;;6.20;;
35578;SDS011;21687;48.900;9.188;2024-01-16T04:35:43;8.60;;;5.63;;
35578;SDS011;21687;48.900;9.188;2024-01-16T04:38:09;10.00;;;5.77;;
35578;SDS011;21687;48.900;9.188;2024-01-16T04:40:36;11.03;;;6.10;;
35578;SDS011;21687;48.900;9.188;2024-01-16T04:43:02;9.13;;;5.40;;
35578;SDS011;21687;48.900;9.188;2024-01-16T04:45:28;15.87;;;7.60;;
35578;SDS011;21687;48.900;9.188;2024-01-16T04:47:55;8.37;;;4.90;;
35578;SDS011;21687;48.900;9.188;2024-01-16T04:50:21;10.87;;;5.57;;
35578;SDS011;21687;48.900;9.188;2024-01-16T04:52:48;10.77;;;5.93;;
35578;SDS011;21687;48.900;9.188;2024-01-16T04:55:14;7.53;;;5.17;;
35578;SDS011;21687;48.900;9.188;2024-01-16T04:57:41;9.10;;;5.70;;
35578;SDS011;21687;48.900;9.188;2024-01-16T05:00:07;7.87;;;5.40;;
35578;SDS011;21687;48.900;9.188;2024-01-16T05:02:34;8.97;;;5.63;;
35578;SDS011;21687;48.900;9.188;2024-01-16T05:05:00;9.10;;;5.27;;
35578;SDS011;21687;48.900;9.188;2024-01-16T05:07:27;7.83;;;5.53;;
35578;SDS011;21687;48.900;9.188;2024-01-16T05:09:53;7.43;;;5.10;;
35578;SDS011;21687;48.900;9.188;2024-01-16T05:12:20;10.80;;;5.40;;
35578;SDS011;21687;48.900;9.188;2024-01-16T05:14:47;9.30;;;5.50;;
35578;SDS011;21687;48.900;9.188;2024-01-16T05:17:14;8.60;;;5.17;;
35578;SDS011;21687;48.900;9.188;2024-01-16T05:19:40;10.20;;;5.40;;
35578;SDS011;21687;48.900;9.188;2024-01-16T05:22:06;6.90;;;5.10;;
35578;SDS011;21687;48.900;9.188;2024-01-16T05:24:35;15.10;;;5.77;;
35578;SDS011;21687;48.900;9.188;2024-01-16T05:27:01;8.23;;;5.57;;
35578;SDS011;21687;48.900;9.188;2024-01-16T05:29:30;6.80;;;5.23;;
35578;SDS011;21687;48.900;9.188;2024-01-16T05:31:56;7.10;;;4.90;;
35578;SDS011;21687;48.900;9.188;2024-01-16T05:34:23;10.10;;;4.90;;
35578;SDS011;21687;48.900;9.188;2024-01-16T05:36:49;8.53;;;4.90;;
35578;SDS011;21687;48.900;9.188;2024-01-16T05:39:16;8.40;;;5.73;;
35578;SDS011;21687;48.900;9.188;2024-01-16T05:41:42;10.40;;;4.97;;
35578;SDS011;21687;48.900;9.188;2024-01-16T05:44:09;7.30;;;5.20;;
35578;SDS011;21687;48.900;9.188;2024-01-16T05:46:35;9.17;;;5.20;;
35578;SDS011;21687;48.900;9.188;2024-01-16T05:49:01;9.60;;;6.00;;
35578;SDS011;21687;48.900;9.188;2024-01-16T05:51:28;11.17;;;5.70;;
35578;SDS011;21687;48.900;9.188;2024-01-16T05:53:55;9.33;;;5.53;;
35578;SDS011;21687;48.900;9.188;2024-01-16T05:56:21;14.30;;;6.07;;
35578;SDS011;21687;48.900;9.188;2024-01-16T05:58:48;6.63;;;5.30;;
35578;SDS011;21687;48.900;9.188;2024-01-16T06:01:14;7.93;;;5.23;;
35578;SDS011;21687;48.900;9.188;2024-01-16T06:03:40;9.23;;;5.20;;
35578;SDS011;21687;48.900;9.188;2024-01-16T06:06:09;8.23;;;5.57;;
35578;SDS011;21687;48.900;9.188;2024-01-16T06:08:35;9.00;;;5.57;;
35578;SDS011;21687;48.900;9.188;2024-01-16T06:11:01;7.67;;;5.20;;
35578;SDS011;21687;48.900;9.188;2024-01-16T06:13:28;9.33;;;5.90;;
35578;SDS011;21687;48.900;9.188;2024-01-16T06:15:57;8.77;;;5.43;;
35578;SDS011;21687;48.900;9.188;2024-01-16T06:18:23;9.90;;;5.70;;
35578;SDS011;21687;48.900;9.188;2024-01-16T06:20:50;9.03;;;5.53;;
35578;SDS011;21687;48.900;9.188;2024-01-16T06:23:16;10.33;;;5.53;;
35578;SDS011;21687;48.900;9.188;2024-01-16T06:25:43;9.57;;;5.77;;
35578;SDS011;21687;48.900;9.188;2024-01-16T06:28:09;11.83;;;6.77;;
35578;SDS011;21687;48.900;9.188;2024-01-16T06:30:36;10.30;;;6.63;;
35578;SDS011;21687;48.900;9.188;2024-01-16T06:33:03;11.13;;;6.20;;
35578;SDS011;21687;48.900;9.188;2024-01-16T06:35:30;13.10;;;6.37;;
35578;SDS011;21687;48.900;9.188;2024-01-16T06:37:56;8.40;;;5.67;;
35578;SDS011;21687;48.900;9.188;2024-01-16T06:40:23;9.77;;;5.77;;
35578;SDS011;21687;48.900;9.188;2024-01-16T06:42:50;7.30;;;4.93;;
35578;SDS011;21687;48.900;9.188;2024-01-16T06:45:16;7.57;;;5.40;;
35578;SDS011;21687;48.900;9.188;2024-01-16T06:47:44;8.80;;;5.60;;
35578;SDS011;21687;48.900;9.188;2024-01-16T06:50:10;11.97;;;6.00;;
35578;SDS011;21687;48.900;9.188;2024-01-16T06:52:36;10.30;;;6.40;;
35578;SDS011;21687;48.900;9.188;2024-01-16T06:55:03;9.77;;;5.77;;
35578;SDS011;21687;48.900;9.188;2024-01-16T06:57:29;16.03;;;6.27;;
35578;SDS011;21687;48.900;9.188;2024-01-16T06:59:55;10.63;;;6.10;;
35578;SDS011;21687;48.900;9.188;2024-01-16T07:02:22;10.37;;;6.37;;
35578;SDS011;21687;48.900;9.188;2024-01-16T07:04:48;10.63;;;6.90;;
35578;SDS011;21687;48.900;9.188;2024-01-16T07:07:15;9.97;;;5.53;;
35578;SDS011;21687;48.900;9.188;2024-01-16T07:09:41;12.63;;;6.00;;
35578;SDS011;21687;48.900;9.188;2024-01-16T07:12:07;8.50;;;5.43;;
35578;SDS011;21687;48.900;9.188;2024-01-16T07:14:34;10.97;;;5.80;;
35578;SDS011;21687;48.900;9.188;2024-01-16T07:17:01;9.43;;;5.60;;
35578;SDS011;21687;48.900;9.188;2024-01-16T07:19:28;11.13;;;6.17;;
35578;SDS011;21687;48.900;9.188;2024-01-16T07:21:54;9.43;;;5.87;;
35578;SDS011;21687;48.900;9.188;2024-01-16T07:24:20;10.77;;;5.60;;
35578;SDS011;21687;48.900;9.188;2024-01-16T07:26:46;12.13;;;5.90;;
35578;SDS011;21687;48.900;9.188;2024-01-16T07:29:13;9.97;;;5.30;;
35578;SDS011;21687;48.900;9.188;2024-01-16T07:31:39;8.77;;;4.97;;
35578;SDS011;21687;48.900;9.188;2024-01-16T07:34:06;8.97;;;5.73;;
35578;SDS011;21687;48.900;9.188;2024-01-16T07:36:32;9.30;;;5.33;;
35578;SDS011;21687;48.900;9.188;2024-01-16T07:38:59;10.73;;;5.17;;
35578;SDS011;21687;48.900;9.188;2024-01-16T07:41:26;7.90;;;4.97;;
35578;SDS011;21687;48.900;9.188;2024-01-16T07:43:52;8.17;;;4.63;;
35578;SDS011;21687;48.900;9.188;2024-01-16T07:46:19;9.50;;;5.17;;
35578;SDS011;21687;48.900;9.188;2024-01-16T07:48:45;8.30;;;5.07;;
35578;SDS011;21687;48.900;9.188;2024-01-16T07:51:11;9.17;;;4.37;;
35578;SDS011;21687;48.900;9.188;2024-01-16T07:53:37;7.43;;;4.30;;
35578;SDS011;21687;48.900;9.188;2024-01-16T07:56:04;9.60;;;4.40;;
35578;SDS011;21687;48.900;9.188;2024-01-16T07:58:30;7.87;;;4.33;;
35578;SDS011;21687;48.900;9.188;2024-01-16T08:00:56;10.37;;;4.00;;
35578;SDS011;21687;48.900;9.188;2024-01-16T08:03:23;7.27;;;3.93;;
35578;SDS011;21687;48.900;9.188;2024-01-16T08:05:49;8.03;;;4.20;;
35578;SDS011;21687;48.900;9.188;2024-01-16T08:08:16;9.40;;;4.07;;
35578;SDS011;21687;48.900;9.188;2024-01-16T08:10:42;6.97;;;4.10;;
35578;SDS011;21687;48.900;9.188;2024-01-16T08:13:08;6.23;;;4.70;;
35578;SDS011;21687;48.900;9.188;2024-01-16T08:15:34;8.20;;;4.83;;
35578;SDS011;21687;48.900;9.188;2024-01-16T08:18:02;9.13;;;5.10;;
35578;SDS011;21687;48.900;9.188;2024-01-16T08:20:28;10.93;;;5.40;;
35578;SDS011;21687;48.900;9.188;2024-01-16T08:22:54;7.77;;;4.77;;
35578;SDS011;21687;48.900;9.188;2024-01-16T08:25:21;7.27;;;4.53;;
35578;SDS011;21687;48.900;9.188;2024-01-16T08:27:47;6.23;;;4.10;;
35578;SDS011;21687;48.900;9.188;2024-01-16T08:30:13;6.57;;;4.23;;
35578;SDS011;21687;48.900;9.188;2024-01-16T08:32:40;7.27;;;4.40;;
35578;SDS011;21687;48.900;9.188;2024-01-16T08:35:06;6.17;;;4.60;;
35578;SDS011;21687;48.900;9.188;2024-01-16T08:37:33;7.83;;;4.63;;
35578;SDS011;21687;48.900;9.188;2024-01-16T08:40:00;9.77;;;5.40;;
35578;SDS011;21687;48.900;9.188;2024-01-16T08:42:28;6.23;;;4.20;;
35578;SDS011;21687;48.900;9.188;2024-01-16T08:44:55;5.37;;;4.00;;
35578;SDS011;21687;48.900;9.188;2024-01-16T08:47:22;9.47;;;4.47;;
35578;SDS011;21687;48.900;9.188;2024-01-16T08:49:48;7.20;;;4.03;;
35578;SDS011;21687;48.900;9.188;2024-01-16T08:52:15;7.27;;;3.90;;
35578;SDS011;21687;48.900;9.188;2024-01-16T08:54:42;9.80;;;4.50;;
35578;SDS011;21687;48.900;9.188;2024-01-16T08:57:09;6.50;;;3.90;;
35578;SDS011;21687;48.900;9.188;2024-01-16T08:59:35;9.57;;;4.40;;
35578;SDS011;21687;48.900;9.188;2024-01-16T09:02:02;9.50;;;4.50;;
35578;SDS011;21687;48.900;9.188;2024-01-16T09:04:28;9.00;;;3.90;;
35578;SDS011;21687;48.900;9.188;2024-01-16T09:06:55;6.17;;;3.80;;
35578;SDS011;21687;48.900;9.188;2024-01-16T09:09:22;5.97;;;3.83;;
35578;SDS011;21687;48.900;9.188;2024-01-16T09:11:48;6.70;;;4.50;;
35578;SDS011;21687;48.900;9.188;2024-01-16T09:14:15;12.37;;;4.73;;
35578;SDS011;21687;48.900;9.188;2024-01-16T09:16:41;12.90;;;4.07;;
35578;SDS011;21687;48.900;9.188;2024-01-16T09:19:08;13.13;;;5.63;;
35578;SDS011;21687;48.900;9.188;2024-01-16T09:21:34;7.23;;;3.90;;
35578;SDS011;21687;48.900;9.188;2024-01-16T09:24:01;11.30;;;4.57;;
35578;SDS011;21687;48.900;9.188;2024-01-16T09:26:28;7.00;;;4.17;;
35578;SDS011;21687;48.900;9.188;2024-01-16T09:28:56;9.23;;;4.20;;
35578;SDS011;21687;48.900;9.188;2024-01-16T09:31:23;8.37;;;4.30;;
35578;SDS011;21687;48.900;9.188;2024-01-16T09:33:50;7.50;;;3.93;;
35578;SDS011;21687;48.900;9.188;2024-01-16T09:36:16;6.67;;;4.00;;
35578;SDS011;21687;48.900;9.188;2024-01-16T09:38:42;5.90;;;3.60;;
35578;SDS011;21687;48.900;9.188;2024-01-16T09:41:09;6.27;;;3.77;;
35578;SDS011;21687;48.900;9.188;2024-01-16T09:43:36;5.87;;;3.73;;
35578;SDS011;21687;48.900;9.188;2024-01-16T09:46:04;9.23;;;4.60;;
35578;SDS011;21687;48.900;9.188;2024-01-16T09:48:32;6.47;;;4.17;;
35578;SDS011;21687;48.900;9.188;2024-01-16T09:50:58;8.70;;;4.07;;
35578;SDS011;21687;48.900;9.188;2024-01-16T09:53:26;11.13;;;4.43;;
35578;SDS011;21687;48.900;9.188;2024-01-16T09:55:56;6.10;;;3.93;;
35578;SDS011;21687;48.900;9.188;2024-01-16T09:58:27;8.03;;;4.07;;
35578;SDS011;21687;48.900;9.188;2024-01-16T10:00:59;8.27;;;4.10;;
35578;SDS011;21687;48.900;9.188;2024-01-16T10:03:25;10.37;;;4.13;;
35578;SDS011;21687;48.900;9.188;2024-01-16T10:05:56;9.23;;;4.30;;
35578;SDS011;21687;48.900;9.188;2024-01-16T10:08:25;8.50;;;4.50;;
35578;SDS011;21687;48.900;9.188;2024-01-16T10:10:52;8.93;;;4.50;;
35578;SDS011;21687;48.900;9.188;2024-01-16T10:13:19;6.73;;;4.03;;
35578;SDS011;21687;48.900;9.188;2024-01-16T10:15:49;9.10;;;4.00;;
35578;SDS011;21687;48.900;9.188;2024-01-16T10:18:29;6.47;;;4.50;;
35578;SDS011;21687;48.900;9.188;2024-01-16T10:20:57;7.17;;;4.40;;
35578;SDS011;21687;48.900;9.188;2024-01-16T10:23:24;6.70;;;4.50;;
35578;SDS011;21687;48.900;9.188;2024-01-16T10:26:05;6.80;;;4.17;;
35578;SDS011;21687;48.900;9.188;2024-01-16T10:28:36;6.87;;;4.40;;
35578;SDS011;21687;48.900;9.188;2024-01-16T10:31:12;16.30;;;4.50;;
35578;SDS011;21687;48.900;9.188;2024-01-16T10:33:39;8.33;;;4.47;;
35578;SDS011;21687;48.900;9.188;2024-01-16T10:36:13;8.77;;;4.33;;
35578;SDS011;21687;48.900;9.188;2024-01-16T10:38:47;7.27;;;4.47;;
35578;SDS011;21687;48.900;9.188;2024-01-16T10:41:14;9.60;;;4.27;;
35578;SDS011;21687;48.900;9.188;2024-01-16T10:44:03;6.03;;;4.33;;
35578;SDS011;21687;48.900;9.188;2024-01-16T10:46:33;6.43;;;4.10;;
35578;SDS011;21687;48.900;9.188;2024-01-16T10:51:28;5.70;;;3.80;;
35578;SDS011;21687;48.900;9.188;2024-01-16T10:54:03;6.27;;;4.37;;
35578;SDS011;21687;48.900;9.188;2024-01-16T10:56:48;8.20;;;4.13;;
35578;SDS011;21687;48.900;9.188;2024-01-16T10:59:25;7.60;;;4.27;;
35578;SDS011;21687;48.900;9.188;2024-01-16T11:02:07;6.27;;;4.23;;
35578;SDS011;21687;48.900;9.188;2024-01-16T11:04:36;9.73;;;4.83;;
35578;SDS011;21687;48.900;9.188;2024-01-16T11:07:03;10.10;;;5.80;;
35578;SDS011;21687;48.900;9.188;2024-01-16T11:09:31;9.77;;;6.30;;
35578;SDS011;21687;48.900;9.188;2024-01-16T11:12:00;10.33;;;4.83;;
35578;SDS011;21687;48.900;9.188;2024-01-16T11:14:28;10.40;;;4.93;;
35578;SDS011;21687;48.900;9.188;2024-01-16T11:16:57;8.00;;;5.00;;
35578;SDS011;21687;48.900;9.188;2024-01-16T11:19:26;13.20;;;4.87;;
35578;SDS011;21687;48.900;9.188;2024-01-16T11:21:53;10.30;;;4.53;;
35578;SDS011;21687;48.900;9.188;2024-01-16T11:24:21;9.20;;;4.33;;
35578;SDS011;21687;48.900;9.188;2024-01-16T11:26:48;8.77;;;4.67;;
35578;SDS011;21687;48.900;9.188;2024-01-16T11:32:08;10.13;;;4.40;;
35578;SDS011;21687;48.900;9.188;2024-01-16T11:35:02;10.33;;;4.60;;
35578;SDS011;21687;48.900;9.188;2024-01-16T11:37:33;11.73;;;4.83;;
35578;SDS011;21687;48.900;9.188;2024-01-16T11:42:47;7.17;;;4.53;;
35578;SDS011;21687;48.900;9.188;2024-01-16T11:48:07;11.10;;;5.13;;
35578;SDS011;21687;48.900;9.188;2024-01-16T11:50:35;8.43;;;4.63;;
35578;SDS011;21687;48.900;9.188;2024-01-16T11:53:04;10.20;;;4.70;;
35578;SDS011;21687;48.900;9.188;2024-01-16T11:55:31;9.87;;;4.47;;
35578;SDS011;21687;48.900;9.188;2024-01-16T12:00:46;10.97;;;4.60;;
35578;SDS011;21687;48.900;9.188;2024-01-16T12:03:21;6.87;;;3.93;;
35578;SDS011;21687;48.900;9.188;2024-01-16T12:05:57;8.97;;;4.70;;
35578;SDS011;21687;48.900;9.188;2024-01-16T12:08:25;5.93;;;4.33;;
35578;SDS011;21687;48.900;9.188;2024-01-16T12:11:03;11.03;;;4.50;;
35578;SDS011;21687;48.900;9.188;2024-01-16T12:13:31;6.70;;;4.17;;
35578;SDS011;21687;48.900;9.188;2024-01-16T12:16:03;9.70;;;4.43;;
35578;SDS011;21687;48.900;9.188;2024-01-16T12:18:31;8.30;;;4.50;;
35578;SDS011;21687;48.900;9.188;2024-01-16T12:21:07;15.57;;;8.07;;
35578;SDS011;21687;48.900;9.188;2024-01-16T12:24:01;10.67;;;5.27;;
35578;SDS011;21687;48.900;9.188;2024-01-16T12:26:30;8.13;;;4.43;;
35578;SDS011;21687;48.900;9.188;2024-01-16T12:28:58;12.30;;;3.90;;
35578;SDS011;21687;48.900;9.188;2024-01-16T12:31:25;8.07;;;4.10;;
35578;SDS011;21687;48.900;9.188;2024-01-16T12:33:52;8.23;;;4.13;;
35578;SDS011;21687;48.900;9.188;2024-01-16T12:36:20;10.03;;;4.83;;
35578;SDS011;21687;48.900;9.188;2024-01-16T12:38:53;4.53;;;3.70;;
35578;SDS011;21687;48.900;9.188;2024-01-16T12:41:21;7.40;;;4.23;;
35578;SDS011;21687;48.900;9.188;2024-01-16T12:43:52;8.63;;;4.30;;
35578;SDS011;21687;48.900;9.188;2024-01-16T12:46:19;7.77;;;4.57;;
35578;SDS011;21687;48.900;9.188;2024-01-16T12:48:45;7.10;;;4.33;;
35578;SDS011;21687;48.900;9.188;2024-01-16T12:51:21;10.93;;;5.10;;
35578;SDS011;21687;48.900;9.188;2024-01-16T12:53:48;13.40;;;5.33;;
35578;SDS011;21687;48.900;9.188;2024-01-16T12:56:18;11.60;;;4.93;;
35578;SDS011;21687;48.900;9.188;2024-01-16T12:58:45;8.20;;;4.37;;
35578;SDS011;21687;48.900;9.188;2024-01-16T13:01:22;8.70;;;3.83;;
35578;SDS011;21687;48.900;9.188;2024-01-16T13:03:50;6.57;;;4.37;;
35578;SDS011;21687;48.900;9.188;2024-01-16T13:06:17;9.33;;;4.50;;
35578;SDS011;21687;48.900;9.188;2024-01-16T13:08:45;12.27;;;4.40;;
35578;SDS011;21687;48.900;9.188;2024-01-16T13:11:12;8.47;;;4.10;;
35578;SDS011;21687;48.900;9.188;2024-01-16T13:13:48;6.53;;;3.67;;
35578;SDS011;21687;48.900;9.188;2024-01-16T13:16:25;8.57;;;3.70;;
35578;SDS011;21687;48.900;9.188;2024-01-16T13:18:59;9.50;;;3.80;;
35578;SDS011;21687;48.900;9.188;2024-01-16T13:21:27;6.97;;;3.80;;
35578;SDS011;21687;48.900;9.188;2024-01-16T13:23:53;9.10;;;4.33;;
35578;SDS011;21687;48.900;9.188;2024-01-16T13:26:20;10.23;;;4.30;;
35578;SDS011;21687;48.900;9.188;2024-01-16T13:28:46;8.23;;;3.97;;
35578;SDS011;21687;48.900;9.188;2024-01-16T13:31:13;7.07;;;4.17;;
35578;SDS011;21687;48.900;9.188;2024-01-16T13:33:41;10.20;;;4.10;;
35578;SDS011;21687;48.900;9.188;2024-01-16T13:36:08;6.93;;;3.83;;
35578;SDS011;21687;48.900;9.188;2024-01-16T13:38:37;7.93;;;3.97;;
35578;SDS011;21687;48.900;9.188;2024-01-16T13:41:03;11.10;;;4.00;;
35578;SDS011;21687;48.900;9.188;2024-01-16T13:43:30;14.43;;;4.60;;
35578;SDS011;21687;48.900;9.188;2024-01-16T13:45:56;5.07;;;3.90;;
35578;SDS011;21687;48.900;9.188;2024-01-16T13:48:26;8.10;;;3.70;;
35578;SDS011;21687;48.900;9.188;2024-01-16T13:50:52;11.17;;;3.60;;
35578;SDS011;21687;48.900;9.188;2024-01-16T13:53:19;5.67;;;3.70;;
35578;SDS011;21687;48.900;9.188;2024-01-16T13:55:48;7.77;;;3.73;;
35578;SDS011;21687;48.900;9.188;2024-01-16T13:58:14;9.50;;;3.50;;
35578;SDS011;21687;48.900;9.188;2024-01-16T14:00:41;7.80;;;3.57;;
35578;SDS011;21687;48.900;9.188;2024-01-16T14:03:07;6.80;;;3.60;;
35578;SDS011;21687;48.900;9.188;2024-01-16T14:05:33;6.77;;;3.63;;
35578;SDS011;21687;48.900;9.188;2024-01-16T14:08:01;7.17;;;3.53;;
35578;SDS011;21687;48.900;9.188;2024-01-16T14:10:28;5.97;;;3.60;;
35578;SDS011;21687;48.900;9.188;2024-01-16T14:12:54;8.83;;;3.60;;
35578;SDS011;21687;48.900;9.188;2024-01-16T14:15:21;7.43;;;3.67;;
35578;SDS011;21687;48.900;9.188;2024-01-16T14:17:49;7.77;;;3.60;;
35578;SDS011;21687;48.900;9.188;2024-01-16T14:20:19;7.33;;;3.67;;
35578;SDS011;21687;48.900;9.188;2024-01-16T14:22:48;7.83;;;3.30;;
35578;SDS011;21687;48.900;9.188;2024-01-16T14:25:16;5.00;;;3.40;;
35578;SDS011;21687;48.900;9.188;2024-01-16T14:27:44;7.07;;;3.13;;
35578;SDS011;21687;48.900;9.188;2024-01-16T14:30:20;7.73;;;3.47;;
35578;SDS011;21687;48.900;9.188;2024-01-16T14:32:46;7.90;;;3.60;;
35578;SDS011;21687;48.900;9.188;2024-01-16T14:35:13;7.70;;;3.60;;
35578;SDS011;21687;48.900;9.188;2024-01-16T14:37:42;8.60;;;3.67;;
35578;SDS011;21687;48.900;9.188;2024-01-16T14:40:09;5.53;;;3.27;;
35578;SDS011;21687;48.900;9.188;2024-01-16T14:42:46;5.93;;;3.23;;
35578;SDS011;21687;48.900;9.188;2024-01-16T14:45:21;8.80;;;4.17;;
35578;SDS011;21687;48.900;9.188;2024-01-16T14:47:48;8.47;;;3.20;;
35578;SDS011;21687;48.900;9.188;2024-01-16T14:50:16;7.60;;;3.30;;
35578;SDS011;21687;48.900;9.188;2024-01-16T14:52:48;9.23;;;3.70;;
35578;SDS011;21687;48.900;9.188;2024-01-16T14:55:15;5.80;;;3.20;;
35578;SDS011;21687;48.900;9.188;2024-01-16T14:57:42;6.37;;;3.33;;
35578;SDS011;21687;48.900;9.188;2024-01-16T15:00:13;5.80;;;3.40;;
35578;SDS011;21687;48.900;9.188;2024-01-16T15:02:51;4.23;;;2.83;;